Time;durP1;ratioP1;P1;durP2;ratioP2;P2;SDS_P1;SDS_P2;PMS_P1;PMS_P2;Temp;Humidity;BMP_temperature;BMP_pressure;BME280_temperature;BME280_humidity;BME280_pressure;Samples;Min_cycle;Max_cycle;Signal;HPM_P1;HPM_P2
2021/01/07 00:01:23;;;;;;;12.40;11.17;;;2.00;99.90;;;;;;5031492;28;21445;-69
2021/01/07 00:03:49;;;;;;;11.50;10.30;;;2.00;99.90;;;;;;5014007;28;20979;-69
2021/01/07 00:06:16;;;;;;;10.57;9.47;;;2.00;99.90;;;;;;5019145;28;20948;-69
2021/01/07 00:08:43;;;;;;;11.43;10.33;;;2.10;99.90;;;;;;5033746;28;20483;-68
2021/01/07 00:11:11;;;;;;;11.17;9.80;;;2.00;99.90;;;;;;5033038;28;20457;-69
2021/01/07 00:13:38;;;;;;;11.70;10.50;;;2.00;99.90;;;;;;5012587;28;20516;-66
2021/01/07 00:16:05;;;;;;;11.53;10.33;;;2.00;99.90;;;;;;5025593;28;20449;-67
2021/01/07 00:18:32;;;;;;;11.67;10.47;;;2.10;99.90;;;;;;5029462;28;20473;-66
2021/01/07 00:20:59;;;;;;;12.70;10.00;;;2.10;99.90;;;;;;5019841;28;20457;-67
2021/01/07 00:23:26;;;;;;;12.40;11.07;;;2.10;99.90;;;;;;5025887;28;20492;-66
2021/01/07 00:25:53;;;;;;;11.40;10.03;;;2.00;99.90;;;;;;5021624;28;20972;-67
2021/01/07 00:28:21;;;;;;;12.10;10.90;;;2.00;99.90;;;;;;5024259;28;20468;-67
2021/01/07 00:30:47;;;;;;;11.30;10.20;;;2.00;99.90;;;;;;5033206;28;20464;-68
2021/01/07 00:33:16;;;;;;;12.67;11.17;;;2.10;99.90;;;;;;5035441;28;20440;-66
2021/01/07 00:35:43;;;;;;;11.73;10.53;;;2.10;99.90;;;;;;5025794;28;20457;-66
2021/01/07 00:38:10;;;;;;;12.17;10.90;;;2.00;99.90;;;;;;5035786;28;20897;-66
2021/01/07 00:40:36;;;;;;;12.50;10.63;;;2.00;99.90;;;;;;5038446;28;20448;-66
2021/01/07 00:43:04;;;;;;;12.00;10.90;;;2.00;99.90;;;;;;5036258;28;20480;-68
2021/01/07 00:45:30;;;;;;;13.43;10.70;;;2.10;99.90;;;;;;5035840;28;20502;-68
2021/01/07 00:47:57;;;;;;;12.63;11.30;;;2.10;99.90;;;;;;5029272;28;20473;-68
2021/01/07 00:50:24;;;;;;;12.90;11.40;;;2.10;99.90;;;;;;5027513;28;20459;-68
2021/01/07 00:52:51;;;;;;;12.40;11.10;;;2.00;99.90;;;;;;5015752;28;20453;-66
2021/01/07 00:55:17;;;;;;;11.00;9.77;;;2.10;99.90;;;;;;5024400;28;20479;-66
2021/01/07 00:57:44;;;;;;;10.83;9.83;;;2.00;99.90;;;;;;5034855;28;20468;-67
2021/01/07 01:00:12;;;;;;;14.27;12.23;;;2.00;99.90;;;;;;5026292;28;20484;-69
2021/01/07 01:02:39;;;;;;;12.53;10.47;;;2.00;99.90;;;;;;5021972;28;20479;-69
2021/01/07 01:05:07;;;;;;;13.13;11.73;;;2.00;99.90;;;;;;5034596;28;20452;-69
2021/01/07 01:07:33;;;;;;;12.73;10.30;;;2.10;99.90;;;;;;5038671;28;21014;-68
2021/01/07 01:10:00;;;;;;;13.40;11.27;;;2.00;99.90;;;;;;5069779;22;20856;-65
2021/01/07 01:12:27;;;;;;;10.67;9.60;;;2.00;99.90;;;;;;5053131;28;20456;-67
2021/01/07 01:14:53;;;;;;;15.00;11.50;;;2.10;99.90;;;;;;5060269;28;20462;-65
2021/01/07 01:17:20;;;;;;;12.00;10.70;;;2.10;99.90;;;;;;5055069;28;20477;-65
2021/01/07 01:19:46;;;;;;;11.47;9.93;;;2.10;99.90;;;;;;5049502;28;20468;-65
2021/01/07 01:22:12;;;;;;;11.80;10.30;;;2.10;99.90;;;;;;5043528;28;20479;-67
2021/01/07 01:24:38;;;;;;;12.43;11.17;;;2.10;99.90;;;;;;5049494;28;20875;-64
2021/01/07 01:27:06;;;;;;;11.50;10.30;;;2.10;99.90;;;;;;5035382;28;20475;-64
2021/01/07 01:29:32;;;;;;;12.23;10.70;;;2.00;99.90;;;;;;5036871;28;20476;-65
2021/01/07 01:31:58;;;;;;;12.73;11.43;;;2.00;99.90;;;;;;5054596;28;20809;-64
2021/01/07 01:34:25;;;;;;;13.80;10.20;;;2.00;99.90;;;;;;5037910;28;20459;-64
2021/01/07 01:36:52;;;;;;;11.50;10.30;;;2.10;99.90;;;;;;5044216;28;20448;-65
2021/01/07 01:39:19;;;;;;;11.60;10.20;;;2.10;99.90;;;;;;5053729;28;20475;-65
2021/01/07 01:41:47;;;;;;;10.23;9.13;;;2.10;99.90;;;;;;5039106;28;20488;-64
2021/01/07 01:44:17;;;;;;;11.27;9.90;;;2.10;99.90;;;;;;5049849;28;20478;-65
2021/01/07 01:46:43;;;;;;;12.60;11.17;;;2.10;99.90;;;;;;5054291;28;20458;-64
2021/01/07 01:49:12;;;;;;;11.30;10.10;;;2.00;99.90;;;;;;5044384;28;20477;-67
2021/01/07 01:51:39;;;;;;;12.80;10.47;;;2.10;99.90;;;;;;5041229;28;20808;-64
2021/01/07 01:54:06;;;;;;;12.63;9.80;;;2.10;99.90;;;;;;5034870;28;20456;-65
2021/01/07 01:56:33;;;;;;;11.47;10.27;;;2.10;99.90;;;;;;5018085;28;20450;-65
2021/01/07 01:59:00;;;;;;;12.03;10.80;;;2.00;99.90;;;;;;5021048;28;20465;-64
2021/01/07 02:01:27;;;;;;;14.33;10.27;;;2.00;99.90;;;;;;5035620;28;20445;-65
2021/01/07 02:03:55;;;;;;;12.03;10.83;;;2.00;99.90;;;;;;5020607;28;20495;-65
2021/01/07 02:06:24;;;;;;;10.93;9.53;;;2.00;99.90;;;;;;5015204;28;20511;-65
2021/01/07 02:08:52;;;;;;;11.93;10.63;;;2.00;99.90;;;;;;5023944;28;20481;-65
2021/01/07 02:11:18;;;;;;;12.97;10.67;;;2.00;99.90;;;;;;5033560;28;20812;-65
2021/01/07 02:13:46;;;;;;;12.67;11.37;;;2.00;99.90;;;;;;5034352;28;20819;-65
2021/01/07 02:16:18;;;;;;;11.60;10.40;;;2.00;99.90;;;;;;5040412;28;20506;-65
2021/01/07 02:18:45;;;;;;;10.90;9.73;;;2.00;99.90;;;;;;5043832;28;20475;-65
2021/01/07 02:21:12;;;;;;;11.63;10.43;;;2.00;99.90;;;;;;5037179;28;20478;-68
2021/01/07 02:23:46;;;;;;;11.00;9.37;;;2.00;99.90;;;;;;5053093;28;20483;-65
2021/01/07 02:26:13;;;;;;;10.07;8.97;;;2.00;99.90;;;;;;5052694;28;20505;-65
2021/01/07 02:28:39;;;;;;;12.03;10.00;;;2.00;99.90;;;;;;5046194;28;20998;-66
2021/01/07 02:31:05;;;;;;;10.90;9.87;;;2.10;99.90;;;;;;5034880;28;20847;-64
2021/01/07 02:33:31;;;;;;;10.00;8.80;;;2.00;99.90;;;;;;5034376;28;20507;-65
2021/01/07 02:35:58;;;;;;;11.30;9.73;;;2.00;99.90;;;;;;5047690;28;20459;-65
2021/01/07 02:38:25;;;;;;;11.80;9.40;;;2.00;99.90;;;;;;5054346;28;20543;-65
2021/01/07 02:40:52;;;;;;;9.40;8.50;;;2.00;99.90;;;;;;5035293;28;20459;-64
2021/01/07 02:43:18;;;;;;;9.83;8.83;;;2.00;99.90;;;;;;5043832;28;20484;-64
2021/01/07 02:45:44;;;;;;;10.13;9.03;;;2.00;99.90;;;;;;5044419;28;20443;-65
2021/01/07 02:48:10;;;;;;;12.10;9.37;;;2.00;99.90;;;;;;5036630;28;20453;-64
2021/01/07 02:50:37;;;;;;;10.43;9.43;;;2.00;99.90;;;;;;5033870;28;20963;-65
2021/01/07 02:53:03;;;;;;;10.30;8.70;;;2.00;99.90;;;;;;5032547;28;20444;-64
2021/01/07 02:55:30;;;;;;;9.63;8.63;;;2.10;99.90;;;;;;5037262;28;20448;-66
2021/01/07 02:57:58;;;;;;;10.13;9.13;;;2.00;99.90;;;;;;5033232;28;20448;-65
2021/01/07 03:00:24;;;;;;;9.90;8.90;;;2.00;99.90;;;;;;5033251;28;20990;-65
2021/01/07 03:02:50;;;;;;;9.60;8.70;;;2.00;99.90;;;;;;5040536;28;20480;-64
2021/01/07 03:05:17;;;;;;;10.30;9.10;;;2.00;99.90;;;;;;5037646;28;20449;-64
2021/01/07 03:07:44;;;;;;;8.63;7.83;;;2.00;99.90;;;;;;5034303;28;20447;-65
2021/01/07 03:10:11;;;;;;;9.53;8.53;;;1.90;99.90;;;;;;5045038;28;20545;-67
2021/01/07 03:12:38;;;;;;;9.13;8.00;;;2.00;99.90;;;;;;5052421;28;20444;-65
2021/01/07 03:15:06;;;;;;;8.60;7.70;;;2.00;99.90;;;;;;5032794;28;20496;-64
2021/01/07 03:17:32;;;;;;;9.10;8.20;;;2.00;99.90;;;;;;5035254;28;20464;-65
2021/01/07 03:19:59;;;;;;;9.63;8.67;;;2.00;99.90;;;;;;5046823;28;20469;-64
2021/01/07 03:22:25;;;;;;;9.03;7.87;;;2.10;99.90;;;;;;5047820;28;20488;-65
2021/01/07 03:24:52;;;;;;;8.60;7.70;;;2.00;99.90;;;;;;5032603;28;20948;-65
2021/01/07 03:27:18;;;;;;;9.23;8.37;;;2.10;99.90;;;;;;5039511;28;20452;-67
2021/01/07 03:29:45;;;;;;;9.43;7.80;;;2.10;99.90;;;;;;5052541;28;20482;-66
2021/01/07 03:32:11;;;;;;;9.30;8.17;;;2.10;99.90;;;;;;5034731;28;20450;-65
2021/01/07 03:34:37;;;;;;;8.93;8.03;;;2.00;99.90;;;;;;5034193;28;20464;-65
2021/01/07 03:37:04;;;;;;;9.90;7.90;;;2.00;99.90;;;;;;5046396;28;21355;-65
2021/01/07 03:39:30;;;;;;;8.97;8.00;;;2.00;99.90;;;;;;5049260;28;20892;-66
2021/01/07 03:41:56;;;;;;;9.27;8.33;;;2.00;99.90;;;;;;5048525;28;20530;-66
2021/01/07 03:44:23;;;;;;;8.77;7.87;;;2.10;99.90;;;;;;5043723;28;20508;-65
2021/01/07 03:46:50;;;;;;;8.20;7.37;;;2.00;99.90;;;;;;5039942;28;20513;-67
2021/01/07 03:49:16;;;;;;;8.83;7.83;;;2.00;99.90;;;;;;5039425;28;20469;-65
2021/01/07 03:51:42;;;;;;;8.47;7.07;;;2.10;99.90;;;;;;5032255;28;20453;-65
2021/01/07 03:54:09;;;;;;;9.47;8.47;;;2.00;99.90;;;;;;5047640;28;20452;-66
2021/01/07 03:56:35;;;;;;;8.97;8.07;;;2.00;99.90;;;;;;5052230;28;20451;-66
2021/01/07 03:59:01;;;;;;;8.17;7.43;;;2.00;99.90;;;;;;5035750;28;20469;-66
2021/01/07 04:01:27;;;;;;;8.70;7.53;;;2.10;99.90;;;;;;5032100;28;20453;-67
2021/01/07 04:03:55;;;;;;;8.83;7.93;;;2.00;99.90;;;;;;5032918;28;20487;-68
2021/01/07 04:06:21;;;;;;;10.43;9.43;;;2.00;99.90;;;;;;5041757;28;20451;-66
2021/01/07 04:08:47;;;;;;;11.70;10.60;;;1.50;99.90;;;;;;5030307;28;20978;-67
2021/01/07 04:11:13;;;;;;;11.63;10.43;;;1.40;99.90;;;;;;5032186;28;20457;-66
2021/01/07 04:13:40;;;;;;;11.97;10.77;;;1.50;99.90;;;;;;5049620;28;20444;-66
2021/01/07 04:16:06;;;;;;;11.87;10.77;;;1.50;99.90;;;;;;5039619;28;20510;-66
2021/01/07 04:18:33;;;;;;;12.50;11.20;;;1.40;99.90;;;;;;5041600;28;20476;-67
2021/01/07 04:21:02;;;;;;;12.23;11.03;;;1.50;99.90;;;;;;5051629;28;20455;-67
2021/01/07 04:23:28;;;;;;;12.03;10.83;;;1.50;99.90;;;;;;5042200;28;20480;-67
2021/01/07 04:25:54;;;;;;;12.43;11.13;;;1.50;99.90;;;;;;5031461;28;20456;-66
2021/01/07 04:28:21;;;;;;;12.57;10.87;;;1.50;99.90;;;;;;5032148;28;20463;-67
2021/01/07 04:30:47;;;;;;;13.63;12.23;;;1.50;99.90;;;;;;5041896;28;20462;-66
2021/01/07 04:33:13;;;;;;;13.63;12.30;;;1.50;99.90;;;;;;5050948;28;20451;-66
2021/01/07 04:35:40;;;;;;;13.60;12.10;;;1.40;99.90;;;;;;5041594;28;20455;-66
2021/01/07 04:38:07;;;;;;;14.50;13.00;;;1.50;99.90;;;;;;5047958;28;20848;-66
2021/01/07 04:40:33;;;;;;;13.80;12.40;;;1.50;99.90;;;;;;5050091;28;20994;-66
2021/01/07 04:42:59;;;;;;;14.43;12.93;;;1.40;99.90;;;;;;5050578;28;20476;-66
2021/01/07 04:45:26;;;;;;;14.07;12.67;;;1.50;99.90;;;;;;5032320;28;20461;-66
2021/01/07 04:47:52;;;;;;;12.83;11.57;;;1.40;99.90;;;;;;5045639;28;20470;-65
2021/01/07 04:50:18;;;;;;;14.47;12.97;;;1.50;99.90;;;;;;5050524;28;20480;-66
2021/01/07 04:52:45;;;;;;;14.43;12.03;;;1.50;99.90;;;;;;5037981;28;20444;-65
2021/01/07 04:55:13;;;;;;;14.40;12.97;;;1.50;99.90;;;;;;5031573;28;20498;-66
2021/01/07 04:57:40;;;;;;;13.77;12.13;;;1.40;99.90;;;;;;5041810;28;20467;-66
2021/01/07 05:00:08;;;;;;;14.07;12.57;;;1.50;99.90;;;;;;5050912;28;20486;-66
2021/01/07 05:02:35;;;;;;;12.77;11.43;;;1.50;99.90;;;;;;5034616;28;20933;-67
2021/01/07 05:05:04;;;;;;;14.60;13.07;;;1.40;99.90;;;;;;5051208;28;20450;-67
2021/01/07 05:07:31;;;;;;;13.70;12.30;;;1.50;99.90;;;;;;5045554;28;20475;-67
2021/01/07 05:10:03;;;;;;;13.10;11.73;;;1.50;99.90;;;;;;5042371;28;20503;-67
2021/01/07 05:12:30;;;;;;;13.30;11.20;;;1.50;99.90;;;;;;5030741;28;20891;-65
2021/01/07 05:14:56;;;;;;;15.10;12.00;;;1.50;99.90;;;;;;5026449;28;20449;-66
2021/01/07 05:17:23;;;;;;;14.40;12.20;;;1.50;99.90;;;;;;5054730;28;20451;-65
2021/01/07 05:19:49;;;;;;;12.03;10.73;;;1.40;99.90;;;;;;5040939;28;20506;-66
2021/01/07 05:22:15;;;;;;;12.70;11.27;;;1.50;99.90;;;;;;5034310;28;20538;-65
2021/01/07 05:24:42;;;;;;;12.50;11.20;;;1.40;99.90;;;;;;5044829;28;20451;-66
2021/01/07 05:27:10;;;;;;;11.60;10.40;;;1.50;99.90;;;;;;5053385;28;20450;-66
2021/01/07 05:29:38;;;;;;;12.63;11.10;;;1.50;99.90;;;;;;5034214;28;20858;-66
2021/01/07 05:32:05;;;;;;;11.93;10.73;;;1.50;99.90;;;;;;5035728;28;20527;-64
2021/01/07 05:34:32;;;;;;;13.30;11.70;;;1.50;99.90;;;;;;5034218;28;20452;-65
2021/01/07 05:37:00;;;;;;;12.00;10.50;;;1.40;99.90;;;;;;5049521;28;20444;-64
2021/01/07 05:39:33;;;;;;;11.30;10.10;;;1.50;99.90;;;;;;5039147;28;20476;-66
2021/01/07 05:42:01;;;;;;;11.57;10.37;;;1.40;99.90;;;;;;5059674;28;20476;-65
2021/01/07 05:44:32;;;;;;;11.13;9.90;;;1.40;99.90;;;;;;5063524;28;20436;-66
2021/01/07 05:46:59;;;;;;;13.20;10.90;;;1.50;99.90;;;;;;5057080;28;20483;-66
2021/01/07 05:49:36;;;;;;;11.70;10.50;;;1.50;99.90;;;;;;5073458;28;20467;-66
2021/01/07 05:52:05;;;;;;;11.50;10.30;;;1.50;99.90;;;;;;5070846;28;20489;-66
2021/01/07 05:54:32;;;;;;;11.60;10.03;;;1.50;99.90;;;;;;5054409;28;20451;-67
2021/01/07 05:57:03;;;;;;;11.47;10.27;;;1.50;99.90;;;;;;5066038;28;20841;-66
2021/01/07 05:59:32;;;;;;;11.33;10.10;;;1.50;99.90;;;;;;5043663;28;20465;-64
2021/01/07 06:02:04;;;;;;;10.97;9.87;;;1.50;99.90;;;;;;5034562;28;21030;-64
2021/01/07 06:04:32;;;;;;;11.23;9.93;;;1.50;99.90;;;;;;5052249;28;20792;-65
2021/01/07 06:06:59;;;;;;;10.43;9.33;;;1.50;99.90;;;;;;5024154;28;20457;-65
2021/01/07 06:09:29;;;;;;;11.30;10.10;;;1.50;99.90;;;;;;5037563;28;20506;-64
2021/01/07 06:11:57;;;;;;;10.60;9.50;;;1.50;99.90;;;;;;5022151;28;20948;-65
2021/01/07 06:14:23;;;;;;;11.63;9.90;;;1.40;99.90;;;;;;5050940;28;20459;-65
2021/01/07 06:16:50;;;;;;;11.70;10.03;;;1.50;99.90;;;;;;5051477;28;20947;-65
2021/01/07 06:19:35;;;;;;;9.93;8.93;;;1.50;99.90;;;;;;5032691;28;20860;-65
2021/01/07 06:22:07;;;;;;;10.53;9.37;;;1.50;99.90;;;;;;5036410;28;20488;-65
2021/01/07 06:24:36;;;;;;;12.00;10.30;;;1.50;99.90;;;;;;5053046;28;20456;-67
2021/01/07 06:27:35;;;;;;;10.00;9.10;;;1.50;99.90;;;;;;5049272;28;20835;-68
2021/01/07 06:30:45;;;;;;;11.53;9.87;;;1.40;99.90;;;;;;5033657;28;20487;-67
2021/01/07 06:33:11;;;;;;;10.73;9.63;;;1.40;99.90;;;;;;5045840;28;20554;-67
2021/01/07 06:35:41;;;;;;;11.13;9.90;;;1.40;99.90;;;;;;5053162;28;20462;-67
2021/01/07 06:38:07;;;;;;;10.77;9.77;;;1.40;99.90;;;;;;5041806;28;20445;-67
2021/01/07 06:40:40;;;;;;;12.63;9.97;;;1.50;99.90;;;;;;5034221;28;20626;-67
2021/01/07 06:43:13;;;;;;;11.20;10.03;;;1.50;99.90;;;;;;5041355;28;20471;-67
2021/01/07 06:45:39;;;;;;;10.40;9.40;;;1.50;99.90;;;;;;5053200;28;20497;-67
2021/01/07 06:48:09;;;;;;;12.03;10.00;;;1.50;99.90;;;;;;5050836;28;20966;-66
2021/01/07 06:50:36;;;;;;;11.07;9.70;;;1.50;99.90;;;;;;5038180;28;20838;-66
2021/01/07 06:53:04;;;;;;;10.33;9.23;;;1.50;99.90;;;;;;5044801;28;20452;-68
2021/01/07 06:55:30;;;;;;;11.17;10.07;;;1.50;99.90;;;;;;5052782;28;21004;-67
2021/01/07 06:57:58;;;;;;;9.93;9.03;;;1.50;99.90;;;;;;5041543;28;20498;-67
2021/01/07 07:00:26;;;;;;;10.23;9.27;;;1.50;99.90;;;;;;5032243;28;20473;-67
2021/01/07 07:02:59;;;;;;;11.37;9.53;;;1.50;99.90;;;;;;5040223;28;20500;-67
2021/01/07 07:05:26;;;;;;;10.77;9.67;;;1.50;99.90;;;;;;5033900;28;20513;-67
2021/01/07 07:08:06;;;;;;;11.30;10.20;;;1.60;99.90;;;;;;5036708;28;21020;-67
2021/01/07 07:10:55;;;;;;;11.33;10.23;;;1.50;99.90;;;;;;5087485;22;20548;-69
2021/01/07 07:13:22;;;;;;;11.50;9.70;;;1.60;99.90;;;;;;5053724;28;20444;-69
2021/01/07 07:15:50;;;;;;;11.90;10.70;;;1.60;99.90;;;;;;5052238;28;20444;-68
2021/01/07 07:18:26;;;;;;;11.40;10.20;;;1.50;99.90;;;;;;5052351;28;20451;-69
2021/01/07 07:20:53;;;;;;;11.90;10.33;;;1.60;99.90;;;;;;5040415;28;20487;-69
2021/01/07 07:23:22;;;;;;;11.67;9.83;;;1.50;99.90;;;;;;5047258;28;20484;-68
2021/01/07 07:25:50;;;;;;;4.83;4.23;;;1.60;99.90;;;;;;5039451;28;20818;-69
2021/01/07 07:28:18;;;;;;;6.17;3.27;;;2.00;99.90;;;;;;5034860;28;20829;-73
2021/01/07 07:30:47;;;;;;;5.23;3.40;;;11.80;99.90;;;;;;5023262;28;20907;-72
2021/01/07 07:33:32;;;;;;;7.30;3.20;;;14.40;99.90;;;;;;5033157;28;20452;-72
2021/01/07 07:35:59;;;;;;;3.40;2.90;;;15.50;99.90;;;;;;5024130;28;20465;-72
2021/01/07 07:38:32;;;;;;;3.00;2.80;;;17.10;99.90;;;;;;5029917;28;20444;-72
2021/01/07 07:41:02;;;;;;;3.00;2.80;;;17.60;99.90;;;;;;5041898;28;20479;-70
2021/01/07 07:43:30;;;;;;;3.33;3.03;;;17.20;99.90;;;;;;5032505;28;20472;-68
2021/01/07 07:45:58;;;;;;;3.10;2.80;;;17.30;99.90;;;;;;5045982;28;20448;-69
2021/01/07 07:48:26;;;;;;;3.40;2.97;;;17.90;99.90;;;;;;5041651;28;20955;-68
2021/01/07 07:51:04;;;;;;;3.23;3.03;;;18.60;99.90;;;;;;5039861;28;20465;-69
2021/01/07 07:53:31;;;;;;;2.90;2.70;;;18.90;99.90;;;;;;5030300;28;20445;-69
2021/01/07 07:55:58;;;;;;;2.50;2.30;;;19.30;99.90;;;;;;5033367;28;20445;-69
2021/01/07 07:58:25;;;;;;;2.10;1.90;;;19.40;99.90;;;;;;5046433;28;20458;-69
2021/01/07 08:00:53;;;;;;;1.93;1.83;;;19.60;99.90;;;;;;5051583;28;20470;-69
2021/01/07 08:03:24;;;;;;;1.80;1.70;;;19.70;99.90;;;;;;5051171;28;20482;-69
2021/01/07 08:05:51;;;;;;;1.80;1.70;;;19.80;99.90;;;;;;5037886;28;20452;-68
2021/01/07 08:08:24;;;;;;;2.73;1.57;;;19.90;99.90;;;;;;5034475;28;20448;-68
2021/01/07 08:10:51;;;;;;;2.27;2.07;;;20.00;99.90;;;;;;5036855;28;20857;-68
2021/01/07 08:13:21;;;;;;;1.80;1.70;;;20.00;99.90;;;;;;5051593;28;20502;-69
2021/01/07 08:15:49;;;;;;;1.57;1.47;;;20.10;99.90;;;;;;5051368;28;20462;-70
2021/01/07 08:18:17;;;;;;;2.37;1.80;;;20.10;99.90;;;;;;5030997;28;20519;-69
2021/01/07 08:20:44;;;;;;;2.67;1.90;;;20.10;99.90;;;;;;5030699;28;20476;-69
2021/01/07 08:23:11;;;;;;;2.03;1.93;;;20.10;99.90;;;;;;5030589;28;20579;-69
2021/01/07 08:25:37;;;;;;;1.90;1.80;;;20.10;99.90;;;;;;5031633;28;20833;-68
2021/01/07 08:28:14;;;;;;;2.10;1.90;;;20.20;99.90;;;;;;5036840;28;20461;-69
2021/01/07 08:30:43;;;;;;;1.70;1.60;;;20.20;99.90;;;;;;5031260;28;20482;-69
2021/01/07 08:33:13;;;;;;;6.00;5.60;;;20.10;99.90;;;;;;5046145;28;20452;-67
2021/01/07 08:35:39;;;;;;;10.17;9.33;;;13.40;99.90;;;;;;5051447;28;20439;-66
2021/01/07 08:38:05;;;;;;;10.33;9.53;;;4.90;99.90;;;;;;5051023;28;20448;-65
2021/01/07 08:40:32;;;;;;;10.70;9.80;;;3.10;99.90;;;;;;5049101;28;20986;-66
2021/01/07 08:43:12;;;;;;;12.37;11.10;;;2.70;99.90;;;;;;5031285;28;21366;-66
2021/01/07 08:45:39;;;;;;;10.43;9.43;;;2.30;99.90;;;;;;5046777;28;20509;-66
2021/01/07 08:48:07;;;;;;;11.20;10.10;;;2.30;99.90;;;;;;5051993;28;20846;-66
2021/01/07 08:50:33;;;;;;;11.50;10.30;;;2.20;99.90;;;;;;5052518;28;20471;-67
2021/01/07 08:53:00;;;;;;;11.63;10.53;;;2.10;99.90;;;;;;5035016;28;20795;-66
2021/01/07 08:55:45;;;;;;;13.47;12.07;;;2.10;99.90;;;;;;5030881;28;20986;-66
2021/01/07 08:58:20;;;;;;;11.70;10.50;;;2.10;99.90;;;;;;5034072;28;20456;-65
2021/01/07 09:00:48;;;;;;;11.80;10.60;;;2.10;99.90;;;;;;5032415;28;20491;-67
2021/01/07 09:03:14;;;;;;;14.00;12.63;;;2.10;99.90;;;;;;5039529;28;20479;-68
2021/01/07 09:05:41;;;;;;;12.90;11.50;;;2.10;99.90;;;;;;5049145;28;20494;-68
2021/01/07 09:08:07;;;;;;;13.63;11.07;;;2.00;99.90;;;;;;5034071;28;20509;-63
2021/01/07 09:10:34;;;;;;;11.13;10.03;;;2.00;99.90;;;;;;5037229;28;20475;-69
2021/01/07 09:13:14;;;;;;;13.03;10.47;;;2.00;99.90;;;;;;5054647;28;20447;-69
2021/01/07 09:15:41;;;;;;;12.33;11.03;;;2.00;99.90;;;;;;5026857;28;20993;-68
2021/01/07 09:18:07;;;;;;;11.97;10.70;;;2.10;99.90;;;;;;5043221;28;20527;-69
2021/01/07 09:20:34;;;;;;;11.20;10.10;;;2.10;99.90;;;;;;5018413;28;20483;-70
2021/01/07 09:23:02;;;;;;;11.87;10.63;;;2.10;99.90;;;;;;5054216;28;20532;-69
2021/01/07 09:25:29;;;;;;;13.73;11.90;;;2.10;99.90;;;;;;5054066;28;20448;-68
2021/01/07 09:27:57;;;;;;;11.70;10.60;;;2.20;99.90;;;;;;5022427;28;20457;-69
2021/01/07 09:30:24;;;;;;;12.00;10.80;;;2.20;99.90;;;;;;5014373;28;20504;-69
2021/01/07 09:32:52;;;;;;;12.07;10.87;;;2.20;99.90;;;;;;5053570;28;20961;-69
2021/01/07 09:35:18;;;;;;;13.93;10.93;;;2.20;99.90;;;;;;5044531;28;20463;-69
2021/01/07 09:37:45;;;;;;;11.83;10.67;;;2.20;99.90;;;;;;5023879;28;20960;-68
2021/01/07 09:40:12;;;;;;;11.93;10.80;;;2.20;99.90;;;;;;5014152;28;20473;-69
2021/01/07 09:42:39;;;;;;;13.67;11.87;;;2.20;99.90;;;;;;5047839;28;20893;-69
2021/01/07 09:45:07;;;;;;;11.00;9.90;;;2.20;99.90;;;;;;5053813;28;20501;-69
2021/01/07 09:47:34;;;;;;;12.80;11.17;;;2.30;99.90;;;;;;5053216;28;20466;-70
2021/01/07 09:50:01;;;;;;;13.03;10.50;;;2.30;99.90;;;;;;5050569;28;20472;-69
2021/01/07 09:52:27;;;;;;;12.57;11.20;;;2.20;99.90;;;;;;5026436;28;20450;-69
2021/01/07 09:54:54;;;;;;;12.17;10.97;;;2.30;99.90;;;;;;5013939;28;20461;-69
2021/01/07 09:57:20;;;;;;;9.77;8.77;;;2.30;99.90;;;;;;5039659;28;20448;-69
2021/01/07 09:59:46;;;;;;;12.53;10.70;;;2.30;99.90;;;;;;5037959;28;20473;-69
2021/01/07 10:02:13;;;;;;;12.17;10.87;;;2.30;99.90;;;;;;5044394;28;20452;-70
2021/01/07 10:04:41;;;;;;;11.63;10.47;;;2.40;99.90;;;;;;5053532;28;20454;-69
2021/01/07 10:07:09;;;;;;;13.03;9.80;;;2.50;99.90;;;;;;5043004;28;20995;-69
2021/01/07 10:09:35;;;;;;;11.10;10.00;;;2.50;99.90;;;;;;5038777;28;20473;-69
2021/01/07 10:12:02;;;;;;;9.47;8.53;;;2.50;99.90;;;;;;5031520;28;20453;-69
2021/01/07 10:14:31;;;;;;;11.10;9.97;;;2.40;99.90;;;;;;5026566;28;20449;-68
2021/01/07 10:16:59;;;;;;;11.23;10.13;;;2.40;99.90;;;;;;5033516;28;20455;-69
2021/01/07 10:19:27;;;;;;;9.60;8.70;;;2.40;99.90;;;;;;5034932;28;20480;-68
2021/01/07 10:22:00;;;;;;;11.10;10.00;;;2.40;99.90;;;;;;5034650;28;21280;-69
2021/01/07 10:24:28;;;;;;;11.10;10.10;;;2.40;99.90;;;;;;5014360;28;20513;-68
2021/01/07 10:26:59;;;;;;;9.70;8.80;;;2.40;99.90;;;;;;5025791;28;20534;-68
2021/01/07 10:29:28;;;;;;;10.17;9.17;;;2.40;99.90;;;;;;5032844;28;20473;-69
2021/01/07 10:31:56;;;;;;;10.23;9.23;;;2.50;99.90;;;;;;5032967;28;20449;-68
2021/01/07 10:34:23;;;;;;;9.60;8.70;;;2.50;99.90;;;;;;5051985;28;20448;-67
2021/01/07 10:36:51;;;;;;;10.27;9.37;;;2.50;99.90;;;;;;5053230;28;20521;-67
2021/01/07 10:39:22;;;;;;;9.80;8.90;;;2.50;99.90;;;;;;5052422;28;20468;-68
2021/01/07 10:41:51;;;;;;;10.63;8.60;;;2.50;99.90;;;;;;5052403;28;20456;-67
2021/01/07 10:44:19;;;;;;;9.23;8.43;;;2.60;99.90;;;;;;5027329;28;20488;-68
2021/01/07 10:46:46;;;;;;;8.87;7.90;;;2.60;99.90;;;;;;5046156;28;21007;-68
2021/01/07 10:49:14;;;;;;;8.50;7.70;;;2.60;99.90;;;;;;5050550;28;20936;-68
2021/01/07 10:51:57;;;;;;;8.83;8.10;;;2.70;99.90;;;;;;5029098;28;20453;-68
2021/01/07 10:54:41;;;;;;;7.77;7.17;;;2.60;99.90;;;;;;5032698;28;20449;-67
2021/01/07 10:57:30;;;;;;;7.57;6.87;;;2.50;99.90;;;;;;5037327;28;20463;-68
2021/01/07 11:00:05;;;;;;;8.30;7.50;;;2.60;99.90;;;;;;5006829;28;20481;-70
2021/01/07 11:03:16;;;;;;;7.27;6.60;;;2.50;99.90;;;;;;5049850;28;20884;-69
2021/01/07 11:05:46;;;;;;;7.20;6.50;;;2.40;99.90;;;;;;5023408;28;20444;-67
2021/01/07 11:08:20;;;;;;;8.13;7.33;;;2.40;99.90;;;;;;5052213;28;20463;-68
2021/01/07 11:10:51;;;;;;;7.67;6.90;;;2.40;99.90;;;;;;5051527;28;20476;-67
2021/01/07 11:13:22;;;;;;;7.60;6.97;;;2.40;99.90;;;;;;5038462;28;20456;-67
2021/01/07 11:15:54;;;;;;;7.23;6.53;;;2.40;99.90;;;;;;5037589;28;20479;-67
2021/01/07 11:18:26;;;;;;;6.13;5.60;;;2.50;99.90;;;;;;5051815;28;20443;-67
2021/01/07 11:20:58;;;;;;;6.60;6.10;;;2.50;99.90;;;;;;5046822;28;20547;-66
2021/01/07 11:23:25;;;;;;;7.40;6.70;;;2.50;99.90;;;;;;5032069;28;20480;-67
2021/01/07 11:25:52;;;;;;;6.30;5.80;;;2.40;99.90;;;;;;5032472;28;20445;-66
2021/01/07 11:28:20;;;;;;;7.10;6.13;;;2.40;99.90;;;;;;5019474;28;20454;-62
2021/01/07 11:30:47;;;;;;;7.37;6.80;;;2.30;99.90;;;;;;5018855;28;20890;-63
2021/01/07 11:33:15;;;;;;;7.00;6.40;;;2.40;99.90;;;;;;5052623;28;20455;-63
2021/01/07 11:35:43;;;;;;;6.27;5.77;;;2.50;99.90;;;;;;5051507;28;20505;-70
2021/01/07 11:38:15;;;;;;;6.03;5.60;;;2.40;99.90;;;;;;5034427;28;20967;-70
2021/01/07 11:40:50;;;;;;;6.13;5.63;;;2.50;99.90;;;;;;5031382;28;20979;-70
2021/01/07 11:43:43;;;;;;;6.47;5.97;;;2.50;99.90;;;;;;5031608;28;20491;-70
2021/01/07 11:46:13;;;;;;;5.97;5.47;;;2.50;99.90;;;;;;5035015;28;20517;-70
2021/01/07 11:48:45;;;;;;;6.60;5.97;;;2.40;99.90;;;;;;5029685;28;20470;-70
2021/01/07 11:51:13;;;;;;;6.00;5.50;;;2.50;99.90;;;;;;5031631;28;20455;-70
2021/01/07 11:53:39;;;;;;;5.70;5.20;;;2.50;99.90;;;;;;5031900;28;21312;-70
2021/01/07 11:56:06;;;;;;;5.67;5.27;;;2.50;99.90;;;;;;5032022;28;20459;-70
2021/01/07 11:58:35;;;;;;;6.33;5.83;;;2.60;99.90;;;;;;5031118;28;20545;-70
2021/01/07 12:01:01;;;;;;;5.80;5.40;;;2.60;99.90;;;;;;5031317;28;20472;-70
2021/01/07 12:03:30;;;;;;;6.57;6.07;;;2.60;99.90;;;;;;5031263;28;20494;-70
2021/01/07 12:06:00;;;;;;;5.43;5.03;;;2.50;99.90;;;;;;5031112;28;20444;-70
2021/01/07 12:09:02;;;;;;;6.13;5.63;;;2.50;99.90;;;;;;5031559;28;20492;-70
2021/01/07 12:11:35;;;;;;;6.90;6.30;;;2.60;99.90;;;;;;5031384;28;20456;-70
2021/01/07 12:14:11;;;;;;;5.83;5.33;;;2.50;99.90;;;;;;5031283;28;20455;-70
2021/01/07 12:16:45;;;;;;;6.20;5.70;;;2.50;99.90;;;;;;5033004;28;20455;-70
2021/01/07 12:19:14;;;;;;;7.93;7.23;;;2.50;99.90;;;;;;5052667;28;20520;-70
2021/01/07 12:21:41;;;;;;;8.50;7.70;;;2.40;99.90;;;;;;5051020;28;20440;-71
2021/01/07 12:24:11;;;;;;;8.93;8.20;;;2.30;99.90;;;;;;5051221;28;21139;-71
2021/01/07 12:26:37;;;;;;;8.90;8.10;;;2.30;99.90;;;;;;5054391;28;20451;-70
2021/01/07 12:29:05;;;;;;;9.00;8.20;;;2.30;99.90;;;;;;5054111;28;20462;-70
2021/01/07 12:31:33;;;;;;;8.20;7.40;;;2.30;99.90;;;;;;5038101;28;20910;-69
2021/01/07 12:34:04;;;;;;;8.57;7.77;;;2.40;99.90;;;;;;5045544;28;20451;-70
2021/01/07 12:36:42;;;;;;;9.67;8.67;;;2.30;99.90;;;;;;5055310;28;20508;-70
2021/01/07 12:39:16;;;;;;;9.43;8.60;;;2.30;99.90;;;;;;5043596;28;20554;-69
2021/01/07 12:41:48;;;;;;;8.27;7.53;;;2.50;99.90;;;;;;5046866;28;20897;-70
2021/01/07 12:44:19;;;;;;;8.10;7.40;;;2.50;99.90;;;;;;5044964;28;20490;-70
2021/01/07 12:46:47;;;;;;;8.07;7.37;;;2.50;99.90;;;;;;5055046;28;20923;-70
2021/01/07 12:49:17;;;;;;;8.77;7.97;;;2.50;99.90;;;;;;5054502;28;20478;-69
2021/01/07 12:51:44;;;;;;;7.30;6.80;;;2.50;99.90;;;;;;5037654;28;20452;-69
2021/01/07 12:54:12;;;;;;;8.27;7.50;;;2.50;99.90;;;;;;5041920;28;20443;-70